createdAt,value
2016-07-11T00:00:33.344Z,97.86
2016-07-11T00:01:33.226Z,97.47
2016-07-11T00:02:33.219Z,97.86
2016-07-11T00:03:33.358Z,97.96
2016-07-11T00:04:33.369Z,98.14
2016-07-11T00:05:33.235Z,97.47
2016-07-11T00:06:33.374Z,97.76
2016-07-11T00:07:33.367Z,98.05
2016-07-11T00:08:33.377Z,97.86
2016-07-11T00:09:33.380Z,98.24
2016-07-11T00:10:33.267Z,98.24
2016-07-11T00:11:33.240Z,97.96
2016-07-11T00:12:33.389Z,98.24
2016-07-11T00:13:33.256Z,98.05
2016-07-11T00:14:33.255Z,98.05
2016-07-11T00:15:33.254Z,97.67
2016-07-11T00:16:33.402Z,98.14
2016-07-11T00:17:33.260Z,97.76
2016-07-11T00:18:33.272Z,97.57
2016-07-11T00:19:33.266Z,97.86
2016-07-11T00:20:33.409Z,97.57
2016-07-11T00:21:33.418Z,97.38
2016-07-11T00:22:33.434Z,98.05
2016-07-11T00:23:33.418Z,97.76
2016-07-11T00:24:33.422Z,97.86
2016-07-11T00:25:33.288Z,97.96
2016-07-11T00:26:33.301Z,97.76
2016-07-11T00:27:33.433Z,97.76
2016-07-11T00:28:33.301Z,97.96
2016-07-11T00:29:33.446Z,97.86
2016-07-11T00:30:33.306Z,98.05
2016-07-11T00:31:33.442Z,98.24
2016-07-11T00:32:33.316Z,98.63
2016-07-11T00:33:33.445Z,98.44
2016-07-11T00:34:33.449Z,98.72
2016-07-11T00:35:33.310Z,98.82
2016-07-11T00:36:33.336Z,98.72
2016-07-11T00:37:33.317Z,98.92
2016-07-11T00:38:33.455Z,98.82
2016-07-11T00:39:33.321Z,98.82
2016-07-11T00:40:33.461Z,99.4
2016-07-11T00:41:33.485Z,99.4
2016-07-11T00:42:33.474Z,99.4
2016-07-11T00:43:33.339Z,99.01
2016-07-11T00:44:33.341Z,99.11
2016-07-11T00:45:33.490Z,99.3
2016-07-11T00:46:33.354Z,98.96
2016-07-11T00:47:33.502Z,99.4
2016-07-11T00:48:33.348Z,99.44
2016-07-11T00:49:33.358Z,99.54
2016-07-11T00:50:33.495Z,99.93
2016-07-11T00:51:33.358Z,99.93
2016-07-11T00:52:33.502Z,99.26
2016-07-11T00:53:33.396Z,99.44
2016-07-11T00:54:33.521Z,98.58
2016-07-11T00:55:33.510Z,98.58
2016-07-11T00:56:33.368Z,98.58
2016-07-11T00:57:33.519Z,98.44
2016-07-11T00:58:33.377Z,98.19
2016-07-11T00:59:33.527Z,98.39
2016-07-11T01:00:33.386Z,98.39
2016-07-11T01:01:33.393Z,98.39
2016-07-11T01:02:33.388Z,98.49
2016-07-11T01:03:33.399Z,98.87
2016-07-11T01:04:33.396Z,98.72
2016-07-11T01:05:33.406Z,99.16
2016-07-11T01:06:33.535Z,99.26
2016-07-11T01:07:33.401Z,98.82
2016-07-11T01:08:33.414Z,99.54
2016-07-11T01:09:33.425Z,98.91
2016-07-11T01:10:33.410Z,99.06
2016-07-11T01:11:33.411Z,99.3
2016-07-11T01:12:33.560Z,98.82
2016-07-11T01:13:33.552Z,99.3
2016-07-11T01:14:33.565Z,99.21
2016-07-11T01:15:33.564Z,99.3
2016-07-11T01:16:33.562Z,99.49
2016-07-11T01:17:33.581Z,99.49
2016-07-11T01:18:33.436Z,99.98
2016-07-11T01:19:33.580Z,99.98
2016-07-11T01:20:33.443Z,99.98
2016-07-11T01:21:33.445Z,99.98
2016-07-11T01:22:33.585Z,99.99
2016-07-11T01:23:33.448Z,99.99
2016-07-11T01:24:33.448Z,99.98
2016-07-11T01:25:33.462Z,99.99
2016-07-11T01:26:33.461Z,99.99
2016-07-11T01:27:33.483Z,99.99
2016-07-11T01:28:33.468Z,99.99
2016-07-11T01:29:33.604Z,99.99
2016-07-11T01:41:41.760Z,99.99
2016-07-11T01:42:41.494Z,99.99
2016-07-11T01:43:41.634Z,99.99
2016-07-11T01:44:41.632Z,99.99
2016-07-11T01:45:41.640Z,99.99
2016-07-11T01:46:41.499Z,99.99
2016-07-11T01:47:41.503Z,99.99
2016-07-11T01:48:41.647Z,99.99
2016-07-11T01:49:41.508Z,99.99
2016-07-11T01:50:41.511Z,99.99
2016-07-11T01:51:41.516Z,99.99
2016-07-11T01:52:41.660Z,99.99
2016-07-11T01:53:41.659Z,99.99
2016-07-11T01:54:41.663Z,99.99
2016-07-11T01:55:41.533Z,99.99
2016-07-11T01:56:41.530Z,99.99
2016-07-11T01:57:41.540Z,99.99
2016-07-11T01:58:41.534Z,99.99
2016-07-11T01:59:41.676Z,99.99
2016-07-11T02:00:41.546Z,99.99
2016-07-11T02:01:41.537Z,99.99
2016-07-11T02:02:41.546Z,99.99
2016-07-11T02:03:41.545Z,99.99
2016-07-11T02:04:41.555Z,99.99
2016-07-11T02:05:41.706Z,99.99
2016-07-11T02:06:41.696Z,99.99
2016-07-11T02:07:41.561Z,99.99
2016-07-11T02:08:41.709Z,99.99
2016-07-11T02:09:41.567Z,99.99
2016-07-11T02:10:41.569Z,99.99
2016-07-11T02:11:41.714Z,99.99
2016-07-11T02:12:41.578Z,99.99
2016-07-11T02:13:41.576Z,99.99
2016-07-11T02:14:41.728Z,99.99
2016-07-11T02:15:41.737Z,99.99
2016-07-11T02:16:41.589Z,99.99
2016-07-11T02:17:41.747Z,99.99
2016-07-11T02:18:41.727Z,99.99
2016-07-11T02:19:41.737Z,99.99
2016-07-11T02:20:41.599Z,99.99
2016-07-11T02:21:41.743Z,99.99
2016-07-11T02:22:41.600Z,99.99
2016-07-11T02:23:41.602Z,99.99
2016-07-11T02:24:41.612Z,99.99
2016-07-11T02:25:41.608Z,99.99
2016-07-11T02:26:41.751Z,99.99
2016-07-11T02:27:41.758Z,99.99
2016-07-11T02:28:41.627Z,99.99
2016-07-11T02:29:41.762Z,99.99
2016-07-11T02:30:41.626Z,99.99
2016-07-11T02:31:41.629Z,99.99
2016-07-11T02:32:41.627Z,99.99
2016-07-11T02:33:41.629Z,99.99
2016-07-11T02:34:41.636Z,99.99
2016-07-11T02:35:41.774Z,99.99
2016-07-11T02:36:41.645Z,99.99
2016-07-11T02:37:41.791Z,99.99
2016-07-11T02:38:41.650Z,99.99
2016-07-11T02:39:41.788Z,99.99
2016-07-11T02:40:41.657Z,99.99
2016-07-11T02:41:41.656Z,99.99
2016-07-11T02:42:41.800Z,99.99
2016-07-11T02:43:41.800Z,99.99
2016-07-11T02:44:41.800Z,99.99
2016-07-11T02:45:41.809Z,99.99
2016-07-11T02:46:41.671Z,99.99
2016-07-11T02:47:41.675Z,99.99
2016-07-11T02:48:41.681Z,99.99
2016-07-11T02:49:41.815Z,99.99
2016-07-11T02:50:41.815Z,99.99
2016-07-11T02:51:41.698Z,99.99
2016-07-11T02:52:41.838Z,99.99
2016-07-11T02:53:41.691Z,99.99
2016-07-11T02:54:41.692Z,99.99
2016-07-11T02:55:41.706Z,99.99
2016-07-11T02:56:41.705Z,99.99
2016-07-11T02:57:41.855Z,99.99
2016-07-11T02:58:41.709Z,99.99
2016-07-11T02:59:41.718Z,99.99
2016-07-11T03:00:41.863Z,99.99
2016-07-11T03:01:41.712Z,99.99
2016-07-11T03:02:41.849Z,99.99
2016-07-11T03:03:41.853Z,99.99
2016-07-11T03:04:41.723Z,99.99
2016-07-11T03:05:41.720Z,99.99
2016-07-11T03:06:41.863Z,99.99
2016-07-11T03:07:41.728Z,99.99
2016-07-11T03:08:41.737Z,99.99
2016-07-11T03:09:41.742Z,99.99
2016-07-11T03:10:41.740Z,99.99
2016-07-11T03:11:41.739Z,99.99
2016-07-11T03:12:41.738Z,99.99
2016-07-11T03:13:41.748Z,99.99
2016-07-11T03:14:41.749Z,99.99
2016-07-11T03:15:41.755Z,99.99
2016-07-11T03:16:41.754Z,99.99
2016-07-11T03:17:41.891Z,99.99
2016-07-11T03:18:41.901Z,99.99
2016-07-11T03:19:41.900Z,99.99
2016-07-11T03:20:41.778Z,99.99
2016-07-11T03:21:41.898Z,99.99
2016-07-11T03:22:41.907Z,99.99
2016-07-11T03:23:41.775Z,99.99
2016-07-11T03:24:41.776Z,99.99
2016-07-11T03:25:41.779Z,99.99
2016-07-11T03:26:41.782Z,99.99
2016-07-11T03:27:41.786Z,99.99
2016-07-11T03:28:41.930Z,99.99
2016-07-11T03:29:41.938Z,99.99
2016-07-11T03:30:41.929Z,99.99
2016-07-11T03:31:41.941Z,99.99
2016-07-11T03:32:41.935Z,99.99
2016-07-11T03:33:41.805Z,99.99
2016-07-11T03:34:41.948Z,99.99
2016-07-11T03:35:41.946Z,99.99
2016-07-11T03:36:41.806Z,99.99
2016-07-11T03:37:41.959Z,99.99
2016-07-11T03:38:41.955Z,99.99
2016-07-11T03:39:41.957Z,99.99
2016-07-11T03:40:41.959Z,99.99
2016-07-11T03:41:41.826Z,99.99
2016-07-11T03:42:41.824Z,99.99
2016-07-11T03:43:41.840Z,99.99
2016-07-11T03:44:41.975Z,99.99
2016-07-11T03:45:41.846Z,99.99
2016-07-11T03:46:41.836Z,99.99
2016-07-11T03:47:41.983Z,99.99
2016-07-11T03:48:41.845Z,99.99
2016-07-11T03:49:41.987Z,99.99
2016-07-11T03:50:41.851Z,99.99
2016-07-11T03:51:42.001Z,99.99
2016-07-11T03:52:41.999Z,99.99
2016-07-11T03:53:41.865Z,99.99
2016-07-11T03:54:41.859Z,99.99
2016-07-11T03:55:42.002Z,99.99
2016-07-11T03:56:41.873Z,99.99
2016-07-11T03:57:41.869Z,99.99
2016-07-11T03:58:42.011Z,99.99
2016-07-11T03:59:42.020Z,99.99
2016-07-11T04:00:41.884Z,99.99
2016-07-11T04:01:41.879Z,99.99
2016-07-11T04:02:41.885Z,99.99
2016-07-11T04:03:41.887Z,99.99
2016-07-11T04:04:41.895Z,99.99
2016-07-11T04:05:42.030Z,99.99
2016-07-11T04:06:41.898Z,99.99
2016-07-11T04:07:41.906Z,99.99
2016-07-11T04:08:42.048Z,99.99
2016-07-11T04:09:42.048Z,99.99
2016-07-11T04:10:41.910Z,99.99
2016-07-11T04:11:42.049Z,99.99
2016-07-11T04:12:41.915Z,99.99
2016-07-11T04:13:41.922Z,99.99
2016-07-11T04:14:41.918Z,99.99
2016-07-11T04:15:41.924Z,99.99
2016-07-11T04:16:42.064Z,99.99
2016-07-11T04:17:41.925Z,99.99
2016-07-11T04:18:42.086Z,99.99
2016-07-11T04:19:41.934Z,99.99
2016-07-11T04:20:41.940Z,99.99
2016-07-11T04:21:42.078Z,99.99
2016-07-11T04:22:42.081Z,99.99
2016-07-11T04:23:41.946Z,99.99
2016-07-11T04:24:41.962Z,99.99
2016-07-11T04:25:42.090Z,99.99
2016-07-11T04:26:42.094Z,99.99
2016-07-11T04:27:41.987Z,99.99
2016-07-11T04:28:41.958Z,99.99
2016-07-11T04:29:41.970Z,99.99
2016-07-11T04:30:42.102Z,99.99
2016-07-11T04:31:42.113Z,99.99
2016-07-11T04:32:41.973Z,99.99
2016-07-11T04:33:42.120Z,99.99
2016-07-11T04:34:42.114Z,99.99
2016-07-11T04:35:41.974Z,99.99
2016-07-11T04:36:41.992Z,99.99
2016-07-11T04:37:41.986Z,99.99
2016-07-11T04:38:41.987Z,99.99
2016-07-11T04:39:41.995Z,99.99
2016-07-11T04:40:42.124Z,99.99
2016-07-11T04:41:42.133Z,99.99
2016-07-11T04:42:42.021Z,99.99
2016-07-11T04:43:42.147Z,99.99
2016-07-11T04:44:42.008Z,99.99
2016-07-11T04:45:42.155Z,99.99
2016-07-11T04:46:42.015Z,99.99
2016-07-11T04:47:42.151Z,99.99
2016-07-11T04:48:42.020Z,99.99
2016-07-11T04:49:42.157Z,99.99
2016-07-11T04:50:42.192Z,99.99
2016-07-11T04:51:42.162Z,99.99
2016-07-11T04:52:42.037Z,99.99
2016-07-11T04:53:42.169Z,99.99
2016-07-11T04:54:42.037Z,99.99
2016-07-11T04:55:42.048Z,99.99
2016-07-11T04:56:42.178Z,99.92
2016-07-11T04:57:42.037Z,99.4
2016-07-11T04:58:42.042Z,99.44
2016-07-11T04:59:42.193Z,99.4
2016-07-11T05:00:42.066Z,99.49
2016-07-11T05:01:42.054Z,99.3
2016-07-11T05:02:42.194Z,99.3
2016-07-11T05:03:42.193Z,99.25
2016-07-11T05:04:42.197Z,99.11
2016-07-11T05:05:42.066Z,99.3
2016-07-11T05:06:42.065Z,99.44
2016-07-11T05:07:42.063Z,99.21
2016-07-11T05:08:42.204Z,98.82
2016-07-11T05:09:42.212Z,98.63
2016-07-11T05:10:42.219Z,98.24
2016-07-11T05:11:42.215Z,98.34
2016-07-11T05:12:42.219Z,98.34
2016-07-11T05:13:42.223Z,98.24
2016-07-11T05:14:42.091Z,97.96
2016-07-11T05:15:42.099Z,97.96
2016-07-11T05:16:42.094Z,97.96
2016-07-11T05:17:42.099Z,98.05
2016-07-11T05:18:42.244Z,97.67
2016-07-11T05:19:42.112Z,97.67
2016-07-11T05:20:42.243Z,98.14
2016-07-11T05:21:42.108Z,97.96
2016-07-11T05:22:42.141Z,98.05
2016-07-11T05:23:42.251Z,98.24
2016-07-11T05:24:42.123Z,98.14
2016-07-11T05:25:42.262Z,97.76
2016-07-11T05:26:42.123Z,98.05
2016-07-11T05:27:42.262Z,98.14
2016-07-11T05:28:42.134Z,98.53
2016-07-11T05:29:42.133Z,97.96
2016-07-11T05:30:42.132Z,97.76
2016-07-11T05:31:42.140Z,97.28
2016-07-11T05:32:42.140Z,96.99
2016-07-11T05:33:42.276Z,97.28
2016-07-11T05:34:42.152Z,97.67
2016-07-11T05:35:42.289Z,97.09
2016-07-11T05:36:42.289Z,96.7
2016-07-11T05:37:42.290Z,96.61
2016-07-11T05:38:42.294Z,96.42
2016-07-11T05:39:42.301Z,96.99
2016-07-11T05:40:42.167Z,96.7
2016-07-11T05:41:42.168Z,96.8
2016-07-11T05:42:42.303Z,96.7
2016-07-11T05:43:42.304Z,96.7
2016-07-11T05:44:42.312Z,96.51
2016-07-11T05:45:42.326Z,96.42
2016-07-11T05:46:42.314Z,96.8
2016-07-11T05:47:42.186Z,96.9
2016-07-11T05:48:42.325Z,96.99
2016-07-11T05:49:42.302Z,96.42
2016-07-11T05:50:42.329Z,96.22
2016-07-11T05:51:42.200Z,96.32
2016-07-11T05:52:42.195Z,96.13
2016-07-11T05:53:42.403Z,91.9
2016-07-11T05:54:42.347Z,92.14
2016-07-11T05:55:42.338Z,90.75
2016-07-11T05:56:42.343Z,90.26
2016-07-11T05:57:42.207Z,89.83
2016-07-11T05:58:42.218Z,89.5
2016-07-11T05:59:42.215Z,89.83
2016-07-11T06:00:42.350Z,88.92
2016-07-11T06:01:42.362Z,87.43
2016-07-11T06:02:42.225Z,87.15
2016-07-11T06:03:42.231Z,85.61
2016-07-11T06:04:42.240Z,84.74
2016-07-11T06:05:42.377Z,84.26
2016-07-11T06:06:42.373Z,83.83
2016-07-11T06:07:42.373Z,83.4
2016-07-11T06:08:42.240Z,84.36
2016-07-11T06:09:42.383Z,83.69
2016-07-11T06:10:42.255Z,83.78
2016-07-11T06:11:42.260Z,83.97
2016-07-11T06:12:42.396Z,84.17
2016-07-11T06:13:42.406Z,84.94
2016-07-11T06:14:42.259Z,84.94
2016-07-11T06:15:42.402Z,84.74
2016-07-11T06:16:42.295Z,84.84
2016-07-11T06:17:42.419Z,85.22
2016-07-11T06:18:42.270Z,85.41
2016-07-11T06:19:42.414Z,85.41
2016-07-11T06:20:42.419Z,85.22
2016-07-11T06:21:42.293Z,85.51
2016-07-11T06:22:42.291Z,85.51
2016-07-11T06:23:42.293Z,85.61
2016-07-11T06:24:42.425Z,85.61
2016-07-11T06:25:42.424Z,85.41
2016-07-11T06:26:42.296Z,85.65
2016-07-11T06:27:42.443Z,85.61
2016-07-11T06:28:42.303Z,85.8
2016-07-11T06:29:42.301Z,85.89
2016-07-11T06:30:42.443Z,85.71
2016-07-11T06:31:42.450Z,85.8
2016-07-11T06:32:42.336Z,85.41
2016-07-11T06:33:42.456Z,85.89
2016-07-11T06:34:42.467Z,85.51
2016-07-11T06:35:42.326Z,85.51
2016-07-11T06:36:42.330Z,85.22
2016-07-11T06:37:42.475Z,85.36
2016-07-11T06:38:42.487Z,83.59
2016-07-11T06:39:42.511Z,83.69
2016-07-11T06:40:42.479Z,83.06
2016-07-11T06:41:42.338Z,82.96
2016-07-11T06:42:42.387Z,82.73
2016-07-11T06:43:42.344Z,82.53
2016-07-11T06:44:42.366Z,81.9
2016-07-11T06:45:42.352Z,81.67
2016-07-11T06:46:42.403Z,81.67
2016-07-11T06:47:42.355Z,81.57
2016-07-11T06:48:42.511Z,81.09
2016-07-11T06:49:42.497Z,81.28
2016-07-11T06:50:42.372Z,80.9
2016-07-11T06:51:42.375Z,80.32
2016-07-11T06:52:42.406Z,80.22
2016-07-11T06:53:42.373Z,80.51
2016-07-11T06:54:42.531Z,81.09
2016-07-11T06:55:42.377Z,80.9
2016-07-11T06:56:42.543Z,81.09
2016-07-11T06:57:42.518Z,81.13
2016-07-11T06:58:42.381Z,81.38
2016-07-11T06:59:42.522Z,81.61
2016-07-11T07:00:42.415Z,81.9
2016-07-11T07:01:42.396Z,81.61
2016-07-11T07:02:42.567Z,81.42
2016-07-11T07:03:42.418Z,81.38
2016-07-11T07:04:42.426Z,81.61
2016-07-11T07:05:42.559Z,81.86
2016-07-11T07:06:42.412Z,81.9
2016-07-11T07:07:42.419Z,82.09
2016-07-11T07:08:42.423Z,81.81
2016-07-11T07:09:42.563Z,81.52
2016-07-11T07:10:42.555Z,82.09
2016-07-11T07:11:42.562Z,81.99
2016-07-11T07:12:42.541Z,82.38
2016-07-11T07:13:42.458Z,81.23
2016-07-11T07:14:42.460Z,81.13
2016-07-11T07:15:42.437Z,80.65
2016-07-11T07:16:42.473Z,80.84
2016-07-11T07:17:42.576Z,80.99
2016-07-11T07:18:42.450Z,81.09
2016-07-11T07:19:42.617Z,81.32
2016-07-11T07:20:42.493Z,80.8
2016-07-11T07:21:42.588Z,80.65
2016-07-11T07:22:42.608Z,81.38
2016-07-11T07:23:42.469Z,81.04
2016-07-11T07:24:42.620Z,81.09
2016-07-11T07:25:42.513Z,81.19
2016-07-11T07:26:42.675Z,81.13
2016-07-11T07:27:42.603Z,81.04
2016-07-11T07:28:42.654Z,80.9
2016-07-11T07:29:42.622Z,81.28
2016-07-11T07:30:42.479Z,81.76
2016-07-11T07:31:42.476Z,82.05
2016-07-11T07:32:42.643Z,81.71
2016-07-11T07:33:42.528Z,81.52
2016-07-11T07:34:42.638Z,81.57
2016-07-11T07:35:42.497Z,81.57
2016-07-11T07:36:42.503Z,80.42
2016-07-11T07:37:42.626Z,79.84
2016-07-11T07:38:42.527Z,80.42
2016-07-11T07:39:42.637Z,80.65
2016-07-11T07:40:42.526Z,80.22
2016-07-11T07:41:42.644Z,79.5
2016-07-11T07:42:42.805Z,79.75
2016-07-11T07:43:42.688Z,79.55
2016-07-11T07:44:42.653Z,79.75
2016-07-11T07:45:42.524Z,79.11
2016-07-11T07:46:42.553Z,78.88
2016-07-11T07:47:42.671Z,79.21
2016-07-11T07:48:42.677Z,79.36
2016-07-11T07:49:42.688Z,79.21
2016-07-11T07:50:42.559Z,79.02
2016-07-11T07:51:42.711Z,79.02
2016-07-11T07:52:42.737Z,79.5
2016-07-11T07:53:42.594Z,79.6
2016-07-11T07:54:42.549Z,79.6
2016-07-11T07:55:42.686Z,79.79
2016-07-11T07:56:42.555Z,79.69
2016-07-11T07:57:42.691Z,79.79
2016-07-11T07:58:42.588Z,79.6
2016-07-11T07:59:42.605Z,79.5
2016-07-11T08:00:42.712Z,79.79
2016-07-11T08:01:42.700Z,79.73
2016-07-11T08:02:42.613Z,79.05
2016-07-11T08:03:42.594Z,78.96
2016-07-11T08:04:42.708Z,78.77
2016-07-11T08:05:42.575Z,77.75
2016-07-11T08:06:42.588Z,78.13
2016-07-11T08:07:42.576Z,78.61
2016-07-11T08:08:42.641Z,78.61
2016-07-11T08:09:42.584Z,78.33
2016-07-11T08:10:42.731Z,78.86
2016-07-11T08:11:42.600Z,79.05
2016-07-11T08:12:42.767Z,79.63
2016-07-11T08:13:42.739Z,79.15
2016-07-11T08:14:42.754Z,79.02
2016-07-11T08:15:42.761Z,79.02
2016-07-11T08:16:42.773Z,78.63
2016-07-11T08:17:43.748Z,79.11
2016-07-11T08:18:42.753Z,79.11
2016-07-11T08:19:42.676Z,79.6
2016-07-11T08:20:42.804Z,78.48
2016-07-11T08:21:42.762Z,77.71
2016-07-11T08:22:42.769Z,77.71
2016-07-11T08:23:42.775Z,77.23
2016-07-11T08:24:42.764Z,77.04
2016-07-11T08:25:42.635Z,77.04
2016-07-11T08:26:42.896Z,76.84
2016-07-11T08:27:43.092Z,77.04
2016-07-11T08:28:42.647Z,76.4
2016-07-11T08:29:42.788Z,76.01
2016-07-11T08:30:42.794Z,75.82
2016-07-11T08:31:42.652Z,75.96
2016-07-11T08:32:42.796Z,76.11
2016-07-11T08:33:42.816Z,76.31
2016-07-11T08:34:42.710Z,76.78
2016-07-11T08:35:42.809Z,77.08
2016-07-11T08:36:42.831Z,78.09
2016-07-11T08:37:42.868Z,78
2016-07-11T08:38:42.749Z,78.48
2016-07-11T08:39:42.844Z,78.96
2016-07-11T08:40:42.851Z,78.19
2016-07-11T08:41:42.819Z,78.96
2016-07-11T08:42:42.888Z,78.96
2016-07-11T08:43:42.712Z,79.05
2016-07-11T08:44:42.687Z,79.15
2016-07-11T08:45:42.692Z,78.03
2016-07-11T08:46:42.744Z,78.13
2016-07-11T08:47:42.712Z,77.26
2016-07-11T08:48:42.910Z,76.78
2016-07-11T08:49:42.714Z,77.65
2016-07-11T08:50:42.706Z,77.75
2016-07-11T08:51:42.846Z,77.11
2016-07-11T08:52:42.715Z,77.75
2016-07-11T08:53:42.741Z,78.23
2016-07-11T08:54:42.718Z,78.13
2016-07-11T08:55:42.865Z,78.81
2016-07-11T08:56:43.002Z,78.33
2016-07-11T08:57:42.861Z,78.13
2016-07-11T08:58:42.876Z,78.03
2016-07-11T08:59:42.748Z,77.98
2016-07-11T09:00:43.009Z,77.69
2016-07-11T09:01:42.768Z,77.78
2016-07-11T09:02:42.900Z,77.75
2016-07-11T09:03:42.900Z,77.75
2016-07-11T09:04:42.754Z,78.03
2016-07-11T09:05:42.753Z,78.58
2016-07-11T09:06:42.903Z,78.67
2016-07-11T09:07:42.766Z,78.09
2016-07-11T09:08:42.902Z,77.08
2016-07-11T09:09:42.763Z,77.26
2016-07-11T09:10:42.916Z,77.26
2016-07-11T09:11:42.906Z,77.94
2016-07-11T09:12:43.492Z,78.13
2016-07-11T09:13:42.914Z,77.94
2016-07-11T09:14:42.916Z,78.13
2016-07-11T09:15:42.794Z,78.33
2016-07-11T09:16:42.813Z,78.61
2016-07-11T09:17:43.033Z,78.23
2016-07-11T09:18:43.079Z,78.9
2016-07-11T09:19:43.428Z,78.61
2016-07-11T09:20:42.877Z,78.03
2016-07-11T09:21:42.969Z,78.13
2016-07-11T09:22:42.975Z,77.94
2016-07-11T09:23:42.990Z,78.33
2016-07-11T09:24:42.995Z,78.33
2016-07-11T09:25:43.027Z,78.13
2016-07-11T09:26:42.882Z,78.23
2016-07-11T09:27:43.055Z,79
2016-07-11T09:28:42.870Z,78.61
2016-07-11T09:29:42.850Z,77.78
2016-07-11T09:30:42.832Z,77.78
2016-07-11T09:31:42.897Z,76.63
2016-07-11T09:32:43.004Z,76.76
2016-07-11T09:33:43.061Z,75.26
2016-07-11T09:34:43.022Z,75.36
2016-07-11T09:35:43.028Z,75.9
2016-07-11T09:36:43.065Z,75.71
2016-07-11T09:37:42.877Z,75.51
2016-07-11T09:38:42.958Z,76.09
2016-07-11T09:39:42.993Z,75.51
2016-07-11T09:40:42.866Z,75.61
2016-07-11T09:41:43.006Z,75.23
2016-07-11T09:42:43.007Z,75.03
2016-07-11T09:43:42.872Z,75.26
2016-07-11T09:44:42.916Z,75.03
2016-07-11T09:45:43.033Z,74.84
2016-07-11T09:46:43.010Z,75.26
2016-07-11T09:47:43.078Z,74.4
2016-07-11T09:48:43.026Z,74.78
2016-07-11T09:49:42.891Z,75.07
2016-07-11T09:50:43.022Z,75.16
2016-07-11T09:51:43.029Z,75.16
2016-07-11T09:52:42.919Z,74.3
2016-07-11T09:53:42.891Z,73.66
2016-07-11T09:54:43.027Z,74.68
2016-07-11T09:55:42.910Z,73.43
2016-07-11T09:56:43.040Z,73.68
2016-07-11T09:57:43.044Z,75.23
2016-07-11T09:58:42.942Z,75.67
2016-07-11T09:59:43.148Z,75.76
2016-07-11T10:00:42.916Z,76.21
2016-07-11T10:01:43.082Z,76.15
2016-07-11T10:02:43.080Z,75.19
2016-07-11T10:03:42.945Z,75.57
2016-07-11T10:04:43.074Z,75.23
2016-07-11T10:05:42.928Z,75.99
2016-07-11T10:06:42.956Z,75.61
2016-07-11T10:07:43.071Z,75.57
2016-07-11T10:08:42.943Z,75.61
2016-07-11T10:09:43.098Z,76.15
2016-07-11T10:10:42.952Z,75.23
2016-07-11T10:11:43.082Z,75.8
2016-07-11T10:12:43.132Z,75.32
2016-07-11T10:13:42.986Z,75.96
2016-07-11T10:14:43.098Z,74.71
2016-07-11T10:15:42.957Z,75.32
2016-07-11T10:16:42.955Z,75.51
2016-07-11T10:17:42.956Z,74.74
2016-07-11T10:18:43.160Z,74.58
2016-07-11T10:19:43.119Z,74.55
2016-07-11T10:20:43.149Z,74.99
2016-07-11T10:21:43.110Z,75.48
2016-07-11T10:22:43.121Z,76.25
2016-07-11T10:23:42.980Z,76.18
2016-07-11T10:24:43.151Z,75.96
2016-07-11T10:25:42.995Z,76.15
2016-07-11T10:26:43.136Z,76.48
2016-07-11T10:27:43.116Z,76.06
2016-07-11T10:28:43.035Z,76.44
2016-07-11T10:29:43.013Z,76.82
2016-07-11T10:30:43.031Z,76.53
2016-07-11T10:31:43.008Z,75.86
2016-07-11T10:32:43.379Z,74.71
2016-07-11T10:33:43.010Z,74.32
2016-07-11T10:34:43.026Z,74.74
2016-07-11T10:35:43.132Z,75.07
2016-07-11T10:36:43.153Z,75.23
2016-07-11T10:37:43.020Z,75.03
2016-07-11T10:38:43.154Z,74.9
2016-07-11T10:39:43.176Z,74.71
2016-07-11T10:40:43.227Z,74.99
2016-07-11T10:41:43.110Z,74.71
2016-07-11T10:42:43.179Z,74.36
2016-07-11T10:43:43.164Z,75.32
2016-07-11T10:44:43.042Z,74.26
2016-07-11T10:45:43.081Z,73.88
2016-07-11T10:46:43.051Z,74.36
2016-07-11T10:47:43.215Z,74.36
2016-07-11T10:48:43.203Z,73.78
2016-07-11T10:49:43.267Z,73.88
2016-07-11T10:50:43.059Z,73.88
2016-07-11T10:51:43.116Z,73.43
2016-07-11T10:52:43.068Z,73.24
2016-07-11T10:53:43.191Z,73.72
2016-07-11T10:54:43.300Z,72.95
2016-07-11T10:55:43.069Z,72.21
2016-07-11T10:56:43.249Z,73.27
2016-07-11T10:57:43.223Z,73.33
2016-07-11T10:58:43.075Z,73.05
2016-07-11T10:59:43.079Z,73.05
2016-07-11T11:00:43.084Z,73.58
2016-07-11T11:01:43.091Z,73.78
2016-07-11T11:02:43.151Z,73.97
2016-07-11T11:03:43.131Z,74.36
2016-07-11T11:04:43.989Z,73.82
2016-07-11T11:05:43.131Z,73.72
2016-07-11T11:06:43.318Z,74.16
2016-07-11T11:07:43.234Z,74.07
2016-07-11T11:08:43.129Z,73.78
2016-07-11T11:09:43.255Z,74.55
2016-07-11T11:10:43.248Z,74.61
2016-07-11T11:11:44.271Z,74.26
2016-07-11T11:12:43.914Z,74.36
2016-07-11T11:13:43.347Z,74.55
2016-07-11T11:14:43.279Z,74.84
2016-07-11T11:15:43.271Z,73.78
2016-07-11T11:16:43.321Z,73.72
2016-07-11T11:17:43.134Z,73.68
2016-07-11T11:18:43.329Z,74.1
2016-07-11T11:19:43.288Z,73.88
2016-07-11T11:20:43.284Z,74.65
2016-07-11T11:21:43.166Z,74.16
2016-07-11T11:22:43.301Z,73.97
2016-07-11T11:23:43.153Z,73.62
2016-07-11T11:24:43.297Z,73.14
2016-07-11T11:25:43.304Z,72.37
2016-07-11T11:26:43.305Z,72.56
2016-07-11T11:27:43.355Z,72.08
2016-07-11T11:28:43.194Z,72.18
2016-07-11T11:29:43.183Z,72.66
2016-07-11T11:30:43.168Z,71.73
2016-07-11T11:31:43.172Z,71.89
2016-07-11T11:32:43.173Z,70.83
2016-07-11T11:33:49.851Z,70.92
2016-07-11T11:34:43.331Z,70.83
2016-07-11T11:35:43.191Z,70.86
2016-07-11T11:36:43.337Z,71.15
2016-07-11T11:37:43.372Z,70.86
2016-07-11T11:38:43.208Z,71.34
2016-07-11T11:39:43.204Z,70.86
2016-07-11T11:40:43.337Z,70.9
2016-07-11T11:41:43.350Z,71.64
2016-07-11T11:42:43.207Z,70.86
2016-07-11T11:43:43.213Z,71.06
2016-07-11T11:44:43.586Z,71.12
2016-07-11T11:45:43.254Z,70.92
2016-07-11T11:46:43.389Z,70.48
2016-07-11T11:47:43.631Z,69.74
2016-07-11T11:48:43.394Z,67.91
2016-07-11T11:49:43.371Z,67.75
2016-07-11T11:50:45.875Z,66.49
2016-07-11T11:51:44.271Z,67.07
2016-07-11T11:52:43.345Z,67.55
2016-07-11T11:53:43.416Z,68.13
2016-07-11T11:54:43.435Z,69.16
2016-07-11T11:55:43.273Z,68.59
2016-07-11T11:56:43.443Z,69.16
2016-07-11T11:57:43.485Z,67.94
2016-07-11T11:58:43.449Z,67.46
2016-07-11T11:59:43.390Z,67.11
2016-07-11T12:00:43.410Z,67.82
2016-07-11T12:01:43.267Z,69.2
2016-07-11T12:02:43.468Z,68.43
2016-07-11T12:03:43.331Z,68.52
2016-07-11T12:04:43.299Z,68.43
2016-07-11T12:05:43.414Z,67.75
2016-07-11T12:06:43.422Z,67.59
2016-07-11T12:07:43.281Z,67.43
2016-07-11T12:08:43.419Z,65.75
2016-07-11T12:09:43.435Z,66.66
2016-07-11T12:10:43.446Z,67.78
2016-07-11T12:11:43.423Z,67.17
2016-07-11T12:12:43.449Z,67.85
2016-07-11T12:13:43.301Z,68.01
2016-07-11T12:14:43.453Z,67.52
2016-07-11T12:15:43.307Z,68.59
2016-07-11T12:16:43.458Z,68.68
2016-07-11T12:17:43.443Z,67.85
2016-07-11T12:18:43.461Z,67.36
2016-07-11T12:19:45.643Z,67.65
2016-07-11T12:20:43.472Z,67.49
2016-07-11T12:21:43.324Z,66.94
2016-07-11T12:22:43.462Z,67.11
2016-07-11T12:23:43.326Z,67.36
2016-07-11T12:24:43.472Z,67.2
2016-07-11T12:25:43.341Z,67.85
2016-07-11T12:26:43.470Z,66.53
2016-07-11T12:27:43.472Z,65.88
2016-07-11T12:28:43.495Z,66.56
2016-07-11T12:29:43.493Z,65.14
2016-07-11T12:30:43.346Z,66.56
2016-07-11T12:31:43.356Z,66.82
2016-07-11T12:32:43.358Z,67.69
2016-07-11T12:33:43.493Z,66.82
2016-07-11T12:34:43.361Z,66.17
2016-07-11T12:35:43.371Z,66.08
2016-07-11T12:36:43.371Z,65.82
2016-07-11T12:37:43.378Z,65.98
2016-07-11T12:38:43.403Z,66.08
2016-07-11T12:39:43.507Z,66.53
2016-07-11T12:40:43.385Z,66.05
2016-07-11T12:41:43.397Z,65.59
2016-07-11T12:42:43.514Z,65.2
2016-07-11T12:43:43.389Z,65.01
2016-07-11T12:44:43.558Z,66.46
2016-07-11T12:45:43.533Z,65.5
2016-07-11T12:46:43.542Z,63.31
2016-07-11T12:47:43.486Z,62.27
2016-07-11T12:48:43.538Z,62.37
2016-07-11T12:49:43.399Z,62.7
2016-07-11T12:50:43.545Z,62.53
2016-07-11T12:51:43.553Z,63.4
2016-07-11T12:52:43.548Z,64.76
2016-07-11T12:53:43.560Z,64.63
2016-07-11T12:54:43.557Z,64.82
2016-07-11T12:55:43.450Z,65.5
2016-07-11T12:56:43.591Z,63.76
2016-07-11T12:57:43.566Z,64.43
2016-07-11T12:58:43.457Z,65.2
2016-07-11T12:59:43.432Z,65.24
2016-07-11T13:00:43.596Z,65.95
2016-07-11T13:01:43.449Z,66.2
2016-07-11T13:02:43.745Z,66.11
2016-07-11T13:03:43.456Z,66.59
2016-07-11T13:04:43.443Z,66.59
2016-07-11T13:05:43.444Z,66.3